Time;durP1;ratioP1;P1;durP2;ratioP2;P2;SDS_P1;SDS_P2;PMS_P1;PMS_P2;Temp;Humidity;BMP_temperature;BMP_pressure;BME280_temperature;BME280_humidity;BME280_pressure;Samples;Min_cycle;Max_cycle;Signal;HPM_P1;HPM_P2
2022/04/29 00:00:05;;;;;;;;;;;;;;;10.39;49.68;93671.28;2058661;69;20142;-71
2022/04/29 00:06:00;;;;;;;;;;;;;;;10.28;50.69;93669.00;2058565;69;20129;-71
2022/04/29 00:08:27;;;;;;;;;;;;;;;10.00;51.76;93665.47;2058526;69;20185;-69
2022/04/29 00:10:52;;;;;;;;;;;;;;;10.26;51.10;93671.66;2058825;69;20529;-70
2022/04/29 00:13:18;;;;;;;;;;;;;;;10.23;50.48;93675.63;2059387;69;20062;-71
2022/04/29 00:15:44;;;;;;;;;;;;;;;10.08;51.88;93665.31;2059014;69;20164;-71
2022/04/29 00:18:10;;;;;;;;;;;;;;;10.05;51.98;93667.25;2058702;69;20160;-71
2022/04/29 00:20:35;;;;;;;;;;;;;;;10.07;51.91;93666.66;2059038;69;20050;-70
2022/04/29 00:23:01;;;;;;;;;;;;;;;9.86;51.81;93664.34;2059026;69;20454;-71
2022/04/29 00:25:27;;;;;;;;;;;;;;;9.26;54.78;93655.38;2059049;69;20154;-71
2022/04/29 00:27:53;;;;;;;;;;;;;;;9.84;52.15;93659.28;2059072;69;20056;-71
2022/04/29 00:30:19;;;;;;;;;;;;;;;9.91;51.79;93657.72;2059065;69;20054;-71
2022/04/29 00:32:44;;;;;;;;;;;;;;;10.02;51.25;93653.59;2058877;69;20056;-70
2022/04/29 00:35:10;;;;;;;;;;;;;;;10.02;51.02;93651.53;2071922;69;20492;-70
2022/04/29 00:37:49;;;;;;;;;;;;;;;9.99;50.19;93647.09;2072156;69;20046;-71
2022/04/29 00:40:15;;;;;;;;;;;;;;;10.17;49.52;93642.88;2072057;69;20064;-70
2022/04/29 00:42:41;;;;;;;;;;;;;;;9.95;51.42;93635.53;2072018;69;20477;-69
2022/04/29 00:45:07;;;;;;;;;;;;;;;9.91;51.85;93641.56;2071727;69;20054;-70
2022/04/29 00:47:33;;;;;;;;;;;;;;;9.99;50.96;93641.47;2059067;69;20057;-69
2022/04/29 00:49:59;;;;;;;;;;;;;;;10.38;49.01;93638.81;2069224;69;20053;-70
2022/04/29 00:52:24;;;;;;;;;;;;;;;9.68;51.54;93641.16;2058931;69;20058;-70
2022/04/29 00:54:54;;;;;;;;;;;;;;;9.75;50.84;93642.38;2059240;69;20582;-70
2022/04/29 00:57:32;;;;;;;;;;;;;;;9.64;52.06;93629.59;2069325;69;20054;-71
2022/04/29 01:00:01;;;;;;;;;;;;;;;9.45;52.46;93635.81;2072081;69;20069;-71
2022/04/29 01:02:27;;;;;;;;;;;;;;;9.55;52.06;93631.00;2059079;69;20057;-71
2022/04/29 01:04:59;;;;;;;;;;;;;;;9.62;50.50;93638.59;2059092;69;20054;-70
2022/04/29 01:07:27;;;;;;;;;;;;;;;9.45;52.62;93633.03;2058993;69;20050;-71
2022/04/29 01:09:53;;;;;;;;;;;;;;;8.96;55.05;93628.34;2072184;69;20054;-71
2022/04/29 01:12:18;;;;;;;;;;;;;;;9.26;53.25;93624.47;2069414;69;20053;-71
2022/04/29 01:14:44;;;;;;;;;;;;;;;9.27;52.74;93626.69;2071998;69;20387;-72
2022/04/29 01:17:09;;;;;;;;;;;;;;;9.26;54.13;93618.84;2072178;69;20049;-72
2022/04/29 01:19:37;;;;;;;;;;;;;;;9.34;53.28;93619.47;2059137;69;20118;-71
2022/04/29 01:22:03;;;;;;;;;;;;;;;9.37;52.10;93618.31;2071889;69;20084;-70
2022/04/29 01:24:29;;;;;;;;;;;;;;;9.30;52.14;93617.09;2059153;69;20053;-70
2022/04/29 01:26:55;;;;;;;;;;;;;;;9.31;53.07;93627.00;2072229;69;20086;-72
2022/04/29 01:29:21;;;;;;;;;;;;;;;9.13;53.44;93625.53;2059187;69;20123;-70
2022/04/29 01:31:48;;;;;;;;;;;;;;;9.06;54.39;93623.56;2072157;69;20045;-70
2022/04/29 01:34:14;;;;;;;;;;;;;;;8.98;54.77;93620.09;2072125;69;20141;-71
2022/04/29 01:36:39;;;;;;;;;;;;;;;9.01;54.06;93616.13;2072028;69;20191;-70
2022/04/29 01:39:05;;;;;;;;;;;;;;;9.06;53.67;93610.25;2072120;69;20425;-70
2022/04/29 01:41:33;;;;;;;;;;;;;;;8.98;53.45;93609.63;2059073;69;20152;-70
2022/04/29 01:43:59;;;;;;;;;;;;;;;8.97;54.34;93608.09;2069030;69;20058;-72
2022/04/29 01:46:24;;;;;;;;;;;;;;;8.80;53.90;93606.06;2059013;69;20118;-72
2022/04/29 01:49:09;;;;;;;;;;;;;;;8.95;53.71;93610.03;2059006;69;20137;-72
2022/04/29 01:51:43;;;;;;;;;;;;;;;8.89;53.94;93610.28;2072083;69;20498;-71
2022/04/29 01:54:10;;;;;;;;;;;;;;;8.96;54.33;93611.50;2059105;69;20096;-70
2022/04/29 01:56:37;;;;;;;;;;;;;;;8.85;54.63;93613.50;2072111;69;20109;-70
2022/04/29 01:59:05;;;;;;;;;;;;;;;8.86;54.02;93606.56;2072097;69;20050;-71
2022/04/29 02:01:35;;;;;;;;;;;;;;;8.72;54.78;93607.47;2072086;69;20586;-71
2022/04/29 02:04:01;;;;;;;;;;;;;;;8.74;54.89;93604.81;2071779;69;20141;-71
2022/04/29 02:06:28;;;;;;;;;;;;;;;8.67;55.07;93606.38;2071937;69;20057;-71
2022/04/29 02:08:53;;;;;;;;;;;;;;;8.73;54.77;93601.25;2071980;69;20062;-71
2022/04/29 02:11:20;;;;;;;;;;;;;;;8.81;54.38;93596.31;2072094;69;20115;-72
2022/04/29 02:13:54;;;;;;;;;;;;;;;8.84;53.30;93595.16;2072137;69;20072;-72
2022/04/29 02:16:25;;;;;;;;;;;;;;;8.65;54.19;93592.16;2072042;69;20050;-72
2022/04/29 02:18:51;;;;;;;;;;;;;;;8.84;51.33;93592.34;2072008;69;20053;-73
2022/04/29 02:21:18;;;;;;;;;;;;;;;8.71;54.21;93584.25;2069135;69;20173;-72
2022/04/29 02:23:43;;;;;;;;;;;;;;;8.36;55.69;93581.41;2072136;69;20148;-71
2022/04/29 02:26:09;;;;;;;;;;;;;;;8.44;55.44;93583.41;2058990;69;20443;-71
2022/04/29 02:28:35;;;;;;;;;;;;;;;8.07;56.95;93581.09;2072083;69;20485;-71
2022/04/29 02:31:03;;;;;;;;;;;;;;;8.46;54.07;93578.69;2072015;69;20046;-71
2022/04/29 02:33:28;;;;;;;;;;;;;;;8.32;55.72;93575.44;2071888;69;20148;-72
2022/04/29 02:35:54;;;;;;;;;;;;;;;8.38;55.29;93580.84;2071793;69;20171;-72
2022/04/29 02:38:20;;;;;;;;;;;;;;;8.13;56.86;93576.00;2071902;69;20142;-71
2022/04/29 02:40:46;;;;;;;;;;;;;;;8.19;55.60;93581.34;2072021;69;20050;-71
2022/04/29 02:43:12;;;;;;;;;;;;;;;8.39;53.38;93580.28;2069191;69;20053;-72
2022/04/29 02:45:37;;;;;;;;;;;;;;;8.20;55.88;93590.50;2059035;69;20074;-72
2022/04/29 02:48:04;;;;;;;;;;;;;;;8.12;56.12;93587.78;2069193;69;20060;-72
2022/04/29 02:50:30;;;;;;;;;;;;;;;8.03;55.48;93580.75;2069119;69;20062;-73
2022/04/29 02:53:04;;;;;;;;;;;;;;;8.11;56.02;93580.69;2058950;69;20149;-72
2022/04/29 02:55:30;;;;;;;;;;;;;;;8.09;55.96;93581.25;2072203;69;20145;-71
2022/04/29 02:58:01;;;;;;;;;;;;;;;8.01;54.85;93585.44;2058961;69;20053;-71
2022/04/29 03:00:27;;;;;;;;;;;;;;;8.00;55.96;93576.28;2071944;69;20061;-71
2022/04/29 03:02:54;;;;;;;;;;;;;;;7.68;57.86;93579.91;2071941;69;20049;-72
2022/04/29 03:05:22;;;;;;;;;;;;;;;7.75;57.42;93583.97;2071827;69;20555;-71
2022/04/29 03:07:47;;;;;;;;;;;;;;;7.63;56.75;93583.66;2072001;69;20065;-72
2022/04/29 03:10:15;;;;;;;;;;;;;;;7.77;56.47;93579.25;2071990;69;20149;-72
2022/04/29 03:12:41;;;;;;;;;;;;;;;7.67;56.88;93574.88;2071892;69;20504;-71
2022/04/29 03:15:16;;;;;;;;;;;;;;;7.61;57.39;93573.03;2071644;69;20066;-72
2022/04/29 03:20:35;;;;;;;;;;;;;;;7.51;58.73;93565.81;2071854;69;20046;-71
2022/04/29 03:23:01;;;;;;;;;;;;;;;7.57;57.48;93566.34;2069061;69;20513;-71
2022/04/29 03:25:26;;;;;;;;;;;;;;;7.64;57.26;93569.06;2058836;69;20052;-72
2022/04/29 03:27:52;;;;;;;;;;;;;;;7.58;57.46;93568.56;2071872;69;20086;-72
2022/04/29 03:30:18;;;;;;;;;;;;;;;7.61;56.53;93564.63;2071865;69;20524;-72
2022/04/29 03:32:54;;;;;;;;;;;;;;;7.55;56.13;93561.28;2071960;69;20054;-72
2022/04/29 03:35:40;;;;;;;;;;;;;;;7.57;57.29;93566.34;2058819;69;20138;-72
2022/04/29 03:38:06;;;;;;;;;;;;;;;7.72;55.17;93555.00;2058863;69;20045;-72
2022/04/29 03:40:32;;;;;;;;;;;;;;;7.71;56.22;93553.53;2071916;69;20104;-72
2022/04/29 03:42:58;;;;;;;;;;;;;;;7.54;55.94;93554.19;2068999;69;20113;-72
2022/04/29 03:45:26;;;;;;;;;;;;;;;7.36;57.67;93558.97;2071966;69;20082;-72
2022/04/29 03:47:53;;;;;;;;;;;;;;;7.38;56.74;93561.97;2072362;69;20046;-71
2022/04/29 03:50:41;;;;;;;;;;;;;;;7.55;56.39;93560.56;2063232;69;20050;-71
2022/04/29 03:53:11;;;;;;;;;;;;;;;7.47;57.23;93565.44;2059409;69;20054;-71
2022/04/29 03:55:39;;;;;;;;;;;;;;;7.37;57.82;93566.06;2072348;69;20145;-72
2022/04/29 03:58:06;;;;;;;;;;;;;;;7.27;57.64;93572.88;2059455;69;20493;-72
2022/04/29 04:00:46;;;;;;;;;;;;;;;7.08;58.21;93573.34;2059305;69;20053;-72
2022/04/29 04:03:16;;;;;;;;;;;;;;;7.11;58.28;93569.41;2072380;69;20436;-72
2022/04/29 04:06:49;;;;;;;;;;;;;;;7.16;58.60;93568.44;2072261;69;20473;-72
2022/04/29 04:08:27;;;;;;;;;;;;;;;7.06;59.07;93575.97;2072287;69;20065;-71
2022/04/29 04:10:53;;;;;;;;;;;;;;;7.17;57.45;93577.59;2072356;69;20050;-71
2022/04/29 04:13:19;;;;;;;;;;;;;;;7.16;57.30;93567.72;2072323;69;20444;-72
2022/04/29 04:16:11;;;;;;;;;;;;;;;7.23;57.61;93573.25;2059684;69;20058;-71
2022/04/29 04:18:36;;;;;;;;;;;;;;;7.10;57.99;93573.50;2072298;69;20417;-72
2022/04/29 04:21:03;;;;;;;;;;;;;;;7.10;58.62;93577.06;2072253;69;20050;-72
2022/04/29 04:23:29;;;;;;;;;;;;;;;7.00;58.71;93584.56;2072368;69;20058;-71
2022/04/29 04:25:57;;;;;;;;;;;;;;;7.12;57.09;93582.09;2059199;69;20054;-71
2022/04/29 04:28:25;;;;;;;;;;;;;;;7.05;58.21;93586.41;2072086;69;20046;-71
2022/04/29 04:30:58;;;;;;;;;;;;;;;7.07;57.63;93589.41;2072336;69;20101;-71
2022/04/29 04:33:33;;;;;;;;;;;;;;;6.94;58.56;93591.69;2072061;69;20054;-72
2022/04/29 04:36:00;;;;;;;;;;;;;;;6.90;58.53;93588.53;2072127;69;20057;-71
2022/04/29 04:38:26;;;;;;;;;;;;;;;6.91;60.06;93590.75;2072201;69;20050;-72
2022/04/29 04:41:14;;;;;;;;;;;;;;;6.73;60.66;93594.75;2059201;69;20058;-72
2022/04/29 04:43:40;;;;;;;;;;;;;;;6.91;59.18;93593.56;2072255;69;20446;-72
2022/04/29 04:46:09;;;;;;;;;;;;;;;6.99;59.56;93596.34;2072235;69;20520;-72
2022/04/29 04:48:43;;;;;;;;;;;;;;;6.77;59.65;93595.84;2071760;69;20060;-72
2022/04/29 04:51:27;;;;;;;;;;;;;;;6.85;59.90;93595.84;2059132;69;20168;-72
2022/04/29 04:53:56;;;;;;;;;;;;;;;6.89;59.44;93596.19;2069409;69;20418;-71
2022/04/29 04:56:23;;;;;;;;;;;;;;;6.90;59.24;93596.94;2072190;69;20046;-71
2022/04/29 04:58:49;;;;;;;;;;;;;;;6.92;59.38;93597.88;2071957;69;20099;-71
2022/04/29 05:01:16;;;;;;;;;;;;;;;6.88;59.84;93597.50;2072256;69;20053;-71
2022/04/29 05:04:04;;;;;;;;;;;;;;;6.93;60.28;93595.81;2063178;69;20134;-71
2022/04/29 05:06:30;;;;;;;;;;;;;;;6.85;59.97;93596.56;2059047;69;20398;-71
2022/04/29 05:08:56;;;;;;;;;;;;;;;6.78;60.23;93602.19;2059152;69;20084;-71
2022/04/29 05:11:21;;;;;;;;;;;;;;;6.85;60.31;93602.16;2059164;69;20497;-71
2022/04/29 05:13:51;;;;;;;;;;;;;;;6.99;58.37;93604.72;2071883;69;20421;-71
2022/04/29 05:16:16;;;;;;;;;;;;;;;6.97;59.02;93604.56;2072094;69;20057;-71
2022/04/29 05:19:17;;;;;;;;;;;;;;;7.07;57.90;93599.84;2067730;69;20092;-71
2022/04/29 05:21:43;;;;;;;;;;;;;;;7.21;58.24;93606.69;2069799;69;20149;-72
2022/04/29 05:24:11;;;;;;;;;;;;;;;7.08;58.85;93609.75;2059064;69;20085;-70
2022/04/29 05:26:57;;;;;;;;;;;;;;;7.12;58.38;93613.63;2063396;69;20054;-70
2022/04/29 05:29:40;;;;;;;;;;;;;;;6.79;60.47;93607.22;2070183;69;20065;-71
2022/04/29 05:32:25;;;;;;;;;;;;;;;6.91;59.60;93613.16;2059172;69;20114;-71
2022/04/29 05:35:20;;;;;;;;;;;;;;;6.96;59.96;93605.84;2063707;69;20056;-73
2022/04/29 05:38:04;;;;;;;;;;;;;;;7.00;60.06;93598.56;2059051;69;20076;-73
2022/04/29 05:43:14;;;;;;;;;;;;;;;6.92;60.15;93602.69;2059066;69;20141;-71
2022/04/29 05:45:40;;;;;;;;;;;;;;;7.02;59.35;93603.63;2072096;69;20130;-72
2022/04/29 05:48:06;;;;;;;;;;;;;;;6.99;59.98;93607.53;2072205;69;20119;-72
2022/04/29 05:50:32;;;;;;;;;;;;;;;7.04;59.86;93607.31;2072060;69;20050;-74
2022/04/29 05:53:00;;;;;;;;;;;;;;;6.98;59.91;93608.84;2072143;69;20072;-71
2022/04/29 05:55:25;;;;;;;;;;;;;;;6.86;61.01;93609.25;2072095;69;20084;-71
2022/04/29 05:57:56;;;;;;;;;;;;;;;6.90;61.56;93603.28;2072177;69;20053;-73
2022/04/29 06:00:22;;;;;;;;;;;;;;;6.98;60.27;93601.19;2072093;69;20050;-72
2022/04/29 06:02:58;;;;;;;;;;;;;;;6.92;61.15;93597.88;2072130;69;20158;-72
2022/04/29 06:05:25;;;;;;;;;;;;;;;6.86;61.61;93603.66;2071997;69;20058;-72
2022/04/29 06:07:51;;;;;;;;;;;;;;;6.94;61.85;93600.09;2072028;69;20046;-72
2022/04/29 06:10:39;;;;;;;;;;;;;;;6.87;61.35;93593.97;2060127;69;20049;-73
2022/04/29 06:13:05;;;;;;;;;;;;;;;7.05;59.81;93596.88;2072093;69;20062;-72
2022/04/29 06:15:35;;;;;;;;;;;;;;;7.10;60.99;93599.47;2071999;69;20049;-71
2022/04/29 06:18:01;;;;;;;;;;;;;;;7.14;60.32;93590.66;2058707;69;20141;-72
2022/04/29 06:20:47;;;;;;;;;;;;;;;6.50;63.49;93594.81;2063264;69;20433;-72
2022/04/29 06:23:31;;;;;;;;;;;;;;;6.88;61.38;93600.31;2058882;69;20069;-72
2022/04/29 06:25:58;;;;;;;;;;;;;;;7.06;60.94;93596.31;2072075;69;20546;-72
2022/04/29 06:28:27;;;;;;;;;;;;;;;7.22;60.74;93591.38;2072004;69;20057;-72
2022/04/29 06:30:53;;;;;;;;;;;;;;;7.43;59.34;93582.69;2072003;69;20050;-72
2022/04/29 06:33:47;;;;;;;;;;;;;;;7.67;60.28;93594.50;2066414;69;20056;-74
2022/04/29 06:36:16;;;;;;;;;;;;;;;7.86;59.65;93591.91;2072024;69;20557;-75
2022/04/29 06:38:45;;;;;;;;;;;;;;;8.11;56.47;93581.44;2069339;69;20056;-72
2022/04/29 06:41:29;;;;;;;;;;;;;;;8.33;58.41;93588.16;2059167;69;20090;-73
2022/04/29 06:44:02;;;;;;;;;;;;;;;8.47;56.00;93585.78;2072084;69;20057;-72
2022/04/29 06:46:50;;;;;;;;;;;;;;;8.55;54.87;93580.13;2059031;69;20496;-73
2022/04/29 06:49:33;;;;;;;;;;;;;;;8.80;56.76;93580.06;2059123;69;20114;-73
2022/04/29 06:52:37;;;;;;;;;;;;;;;9.09;54.85;93581.00;2067653;69;20052;-71
2022/04/29 06:55:17;;;;;;;;;;;;;;;9.28;54.59;93586.00;2067510;69;20138;-72
2022/04/29 06:57:42;;;;;;;;;;;;;;;9.38;54.05;93581.19;2060076;69;20225;-72
2022/04/29 07:00:08;;;;;;;;;;;;;;;9.69;52.83;93583.59;2072004;69;20192;-72
2022/04/29 07:02:34;;;;;;;;;;;;;;;9.95;54.33;93586.97;2071975;69;20049;-73
2022/04/29 07:04:59;;;;;;;;;;;;;;;10.11;53.44;93585.38;2071903;69;20062;-73
2022/04/29 07:07:28;;;;;;;;;;;;;;;10.49;51.43;93586.84;2071918;69;20054;-72
2022/04/29 07:10:04;;;;;;;;;;;;;;;10.90;52.02;93577.28;2071921;69;20054;-72
2022/04/29 07:12:47;;;;;;;;;;;;;;;11.25;51.70;93571.31;2058956;69;20093;-72
2022/04/29 07:15:13;;;;;;;;;;;;;;;11.40;50.74;93573.81;2071966;69;20084;-72
2022/04/29 07:17:40;;;;;;;;;;;;;;;11.75;49.52;93569.88;2058893;69;20054;-72
2022/04/29 07:20:07;;;;;;;;;;;;;;;12.13;48.53;93552.81;2071720;69;20115;-72
2022/04/29 07:22:32;;;;;;;;;;;;;;;12.45;49.50;93559.19;2058908;69;20038;-72
2022/04/29 07:24:59;;;;;;;;;;;;;;;12.81;49.22;93543.94;2071876;69;20126;-73
2022/04/29 07:27:28;;;;;;;;;;;;;;;12.94;46.67;93543.41;2069107;69;20066;-73
2022/04/29 07:29:53;;;;;;;;;;;;;;;13.42;46.44;93539.44;2071902;69;20136;-72
2022/04/29 07:32:25;;;;;;;;;;;;;;;13.54;45.81;93539.47;2071953;69;20504;-73
2022/04/29 07:43:52;;;;;;;;;;;;;;;14.92;42.95;93532.94;2071903;69;20085;-72
2022/04/29 07:46:19;;;;;;;;;;;;;;;15.02;41.57;93538.47;2068789;69;20429;-73
2022/04/29 07:49:04;;;;;;;;;;;;;;;15.82;41.97;93538.00;2058785;69;20053;-72
2022/04/29 07:51:29;;;;;;;;;;;;;;;15.93;40.01;93531.50;2071759;69;20057;-72
2022/04/29 07:53:55;;;;;;;;;;;;;;;16.43;40.01;93532.00;2071751;69;20054;-72
2022/04/29 07:56:21;;;;;;;;;;;;;;;16.86;38.58;93526.44;2071906;69;20401;-72
2022/04/29 07:58:47;;;;;;;;;;;;;;;16.80;38.59;93514.00;2071828;69;20061;-72
2022/04/29 08:01:13;;;;;;;;;;;;;;;16.70;38.25;93505.66;2058793;69;20058;-72
2022/04/29 08:03:43;;;;;;;;;;;;;;;17.11;37.48;93508.47;2071817;69;20042;-72
2022/04/29 08:06:11;;;;;;;;;;;;;;;16.90;36.86;93503.13;2071751;69;20050;-72
2022/04/29 08:08:37;;;;;;;;;;;;;;;16.24;35.52;93504.72;2071731;69;20050;-73
2022/04/29 08:11:04;;;;;;;;;;;;;;;17.00;37.74;93498.72;2069027;69;20046;-73
2022/04/29 08:13:36;;;;;;;;;;;;;;;17.16;38.05;93498.03;2071768;69;20094;-72
2022/04/29 08:16:37;;;;;;;;;;;;;;;17.82;37.71;93504.75;2067261;69;20118;-72
2022/04/29 08:19:11;;;;;;;;;;;;;;;18.58;36.77;93494.63;2072985;69;20474;-72
2022/04/29 08:21:56;;;;;;;;;;;;;;;18.46;35.52;93500.53;2056634;69;20060;-72
2022/04/29 08:24:23;;;;;;;;;;;;;;;18.96;35.48;93493.44;2071789;69;20428;-72
2022/04/29 08:26:48;;;;;;;;;;;;;;;18.88;35.65;93498.84;2071757;69;20115;-72
2022/04/29 08:29:14;;;;;;;;;;;;;;;18.33;34.31;93487.13;2071779;69;20078;-72
2022/04/29 08:31:41;;;;;;;;;;;;;;;18.54;33.60;93481.66;2072084;69;20045;-72
2022/04/29 08:34:08;;;;;;;;;;;;;;;19.04;34.07;93487.34;2072172;69;20104;-71
2022/04/29 08:36:33;;;;;;;;;;;;;;;19.87;32.41;93484.28;2072161;69;20406;-71
2022/04/29 08:39:00;;;;;;;;;;;;;;;19.19;33.35;93475.13;2072213;69;20504;-71
2022/04/29 08:41:25;;;;;;;;;;;;;;;19.03;30.39;93472.34;2072286;69;20574;-72
2022/04/29 08:43:54;;;;;;;;;;;;;;;19.38;32.29;93468.06;2069496;69;20038;-72
2022/04/29 08:46:39;;;;;;;;;;;;;;;20.08;30.49;93462.94;2069767;69;20066;-71
2022/04/29 08:49:22;;;;;;;;;;;;;;;19.40;32.16;93468.16;2072144;69;20046;-72
2022/04/29 08:51:47;;;;;;;;;;;;;;;20.41;30.94;93453.44;2059136;69;20505;-72
2022/04/29 08:58:36;;;;;;;;;;;;;;;20.74;30.12;93454.63;2059256;69;20062;-72
2022/04/29 08:59:45;;;;;;;;;;;;;;;19.89;29.65;93438.66;2059325;69;20087;-72
2022/04/29 09:02:10;;;;;;;;;;;;;;;20.45;28.87;93432.84;2059240;69;20045;-71
2022/04/29 09:04:36;;;;;;;;;;;;;;;20.86;28.97;93435.00;2059106;69;20050;-72
2022/04/29 09:07:01;;;;;;;;;;;;;;;20.94;30.20;93423.13;2059001;69;20050;-72
2022/04/29 09:09:27;;;;;;;;;;;;;;;21.70;30.32;93424.16;2072220;69;20057;-71
2022/04/29 09:12:12;;;;;;;;;;;;;;;23.20;26.82;93411.88;2059154;69;20119;-73
2022/04/29 09:14:38;;;;;;;;;;;;;;;21.62;29.21;93403.84;2059207;69;20046;-72
2022/04/29 09:17:03;;;;;;;;;;;;;;;21.35;28.47;93407.28;2059199;69;20053;-71
2022/04/29 09:19:33;;;;;;;;;;;;;;;21.14;28.82;93403.00;2059272;69;20096;-71
2022/04/29 09:22:09;;;;;;;;;;;;;;;22.90;26.55;93398.19;2058860;69;20170;-72
2022/04/29 09:24:58;;;;;;;;;;;;;;;22.41;28.06;93399.00;2058647;69;20050;-72
2022/04/29 09:27:56;;;;;;;;;;;;;;;21.52;28.31;93392.81;2071859;69;20065;-71
2022/04/29 09:30:33;;;;;;;;;;;;;;;21.37;28.57;93390.91;2072094;69;20509;-72
2022/04/29 09:33:35;;;;;;;;;;;;;;;22.92;26.05;93383.16;2059042;69;20058;-70
2022/04/29 09:36:26;;;;;;;;;;;;;;;21.82;27.20;93375.81;2071943;69;20138;-71
2022/04/29 09:42:20;;;;;;;;;;;;;;;22.47;27.21;93367.63;2059051;69;20149;-71
2022/04/29 09:44:45;;;;;;;;;;;;;;;22.65;28.04;93359.50;2058854;69;20050;-71
2022/04/29 09:47:12;;;;;;;;;;;;;;;22.63;27.93;93353.69;2059034;69;20158;-71
2022/04/29 09:49:38;;;;;;;;;;;;;;;22.29;28.42;93345.63;2058907;69;20053;-70
2022/04/29 09:52:04;;;;;;;;;;;;;;;22.79;27.17;93350.53;2058851;69;20050;-70
2022/04/29 09:54:35;;;;;;;;;;;;;;;23.69;27.84;93344.09;2058986;69;20581;-70
2022/04/29 09:57:18;;;;;;;;;;;;;;;23.44;25.06;93334.88;2059000;69;20050;-71
2022/04/29 09:59:47;;;;;;;;;;;;;;;23.54;26.88;93329.34;2059102;69;20050;-71
2022/04/29 10:02:14;;;;;;;;;;;;;;;25.13;25.19;93328.91;2059040;69;20058;-71
2022/04/29 10:04:44;;;;;;;;;;;;;;;25.23;24.67;93328.34;2071917;69;20507;-71
2022/04/29 10:07:11;;;;;;;;;;;;;;;24.06;25.20;93320.44;2058840;69;20073;-71
2022/04/29 10:09:40;;;;;;;;;;;;;;;24.00;25.01;93322.44;2072025;69;20145;-71
2022/04/29 10:12:16;;;;;;;;;;;;;;;23.04;25.38;93318.16;2058971;69;20062;-71
2022/04/29 10:14:48;;;;;;;;;;;;;;;24.76;25.57;93313.88;2071916;69;20478;-71
2022/04/29 10:26:32;;;;;;;;;;;;;;;24.90;23.39;93304.00;2058992;69;20053;-70
2022/04/29 10:29:00;;;;;;;;;;;;;;;25.24;24.21;93307.47;2071958;69;20081;-68
2022/04/29 10:31:27;;;;;;;;;;;;;;;25.35;22.36;93306.22;2058732;69;20141;-69
2022/04/29 10:33:52;;;;;;;;;;;;;;;27.03;22.53;93291.66;2058935;69;20165;-70
2022/04/29 10:36:24;;;;;;;;;;;;;;;27.20;23.08;93286.75;2071903;69;20053;-70
2022/04/29 10:39:00;;;;;;;;;;;;;;;28.20;21.80;93287.34;2058951;69;20050;-70
2022/04/29 10:45:02;;;;;;;;;;;;;;;28.76;20.30;93280.28;2058911;69;20053;-70
2022/04/29 10:47:38;;;;;;;;;;;;;;;29.65;20.33;93287.59;2071581;69;20053;-70
2022/04/29 10:50:30;;;;;;;;;;;;;;;31.24;19.10;93280.34;2058832;69;20134;-70
2022/04/29 10:53:14;;;;;;;;;;;;;;;32.23;17.49;93283.81;2058877;69;20157;-71
2022/04/29 10:55:39;;;;;;;;;;;;;;;32.30;16.83;93276.41;2068852;69;20042;-71
2022/04/29 10:58:44;;;;;;;;;;;;;;;32.75;15.42;93270.75;2068714;69;20050;-72
2022/04/29 11:01:25;;;;;;;;;;;;;;;35.38;14.60;93277.59;2058705;69;20082;-71
2022/04/29 11:03:50;;;;;;;;;;;;;;;38.71;12.39;93272.72;2058740;69;20156;-71
2022/04/29 11:06:16;;;;;;;;;;;;;;;38.94;11.52;93263.78;2071768;69;20145;-72
2022/04/29 11:08:43;;;;;;;;;;;;;;;39.60;11.41;93269.28;2058630;69;20046;-71
2022/04/29 11:11:09;;;;;;;;;;;;;;;39.22;10.19;93268.63;2058688;69;20085;-73
2022/04/29 11:14:06;;;;;;;;;;;;;;;40.46;10.44;93265.69;2063495;69;20049;-71
2022/04/29 11:17:07;;;;;;;;;;;;;;;41.76;10.39;93244.13;2058727;69;20073;-70
2022/04/29 11:19:44;;;;;;;;;;;;;;;42.43;8.90;93245.22;2056333;69;20153;-70
2022/04/29 11:25:01;;;;;;;;;;;;;;;42.86;9.27;93234.81;2058703;69;20046;-70
2022/04/29 11:31:14;;;;;;;;;;;;;;;42.90;9.10;93222.75;2058869;69;20497;-70
2022/04/29 11:33:43;;;;;;;;;;;;;;;39.49;9.82;93214.53;2058993;69;20049;-71
2022/04/29 11:39:40;;;;;;;;;;;;;;;43.30;8.73;93213.13;2058785;69;20057;-73
2022/04/29 11:45:36;;;;;;;;;;;;;;;43.71;9.20;93210.81;2058679;69;20592;-70
2022/04/29 11:48:06;;;;;;;;;;;;;;;39.57;9.53;93184.72;2071738;69;20046;-70
2022/04/29 11:50:35;;;;;;;;;;;;;;;44.31;8.53;93194.69;2058505;69;20053;-70
2022/04/29 11:53:07;;;;;;;;;;;;;;;42.67;8.70;93190.00;2058650;69;20062;-70
2022/04/29 11:55:33;;;;;;;;;;;;;;;43.51;8.99;93183.81;2058703;69;20058;-71
2022/04/29 11:57:59;;;;;;;;;;;;;;;41.88;8.63;93177.81;2071606;69;20130;-71
2022/04/29 12:00:26;;;;;;;;;;;;;;;45.39;7.08;93187.19;2058745;69;20118;-71
2022/04/29 12:02:55;;;;;;;;;;;;;;;42.49;7.95;93171.66;2058593;69;20054;-72
2022/04/29 12:05:24;;;;;;;;;;;;;;;39.10;8.91;93166.03;2058492;69;20054;-75
2022/04/29 12:07:51;;;;;;;;;;;;;;;42.26;9.33;93159.59;2058995;69;20076;-72
2022/04/29 12:10:28;;;;;;;;;;;;;;;41.54;8.59;93157.31;2059300;69;20087;-73
2022/04/29 12:12:58;;;;;;;;;;;;;;;41.84;8.06;93148.47;2072242;69;20402;-73
2022/04/29 12:15:30;;;;;;;;;;;;;;;40.45;9.72;93140.34;2059240;69;20042;-72
2022/04/29 12:17:59;;;;;;;;;;;;;;;41.48;8.85;93136.94;2059109;69;20058;-73
2022/04/29 12:20:25;;;;;;;;;;;;;;;41.54;9.31;93139.59;2059062;69;20152;-72
2022/04/29 12:22:52;;;;;;;;;;;;;;;41.94;8.77;93130.19;2059021;69;20119;-72
2022/04/29 12:25:21;;;;;;;;;;;;;;;41.27;8.02;93121.75;2059132;69;20054;-68
2022/04/29 12:28:05;;;;;;;;;;;;;;;39.36;9.81;93114.22;2059153;69;20550;-68
2022/04/29 12:36:24;;;;;;;;;;;;;;;38.93;9.47;93104.16;2059153;69;20138;-72
2022/04/29 12:38:51;;;;;;;;;;;;;;;33.84;11.14;93082.94;2058295;69;20463;-73
2022/04/29 12:41:27;;;;;;;;;;;;;;;36.64;11.57;93091.06;2059174;69;20131;-71
2022/04/29 12:43:53;;;;;;;;;;;;;;;37.22;9.98;93087.69;2059094;69;20240;-73
2022/04/29 12:49:47;;;;;;;;;;;;;;;33.43;13.49;93066.25;2059261;69;20041;-72
2022/04/29 12:52:12;;;;;;;;;;;;;;;33.41;12.90;93071.41;2059077;69;20051;-72
2022/04/29 12:54:38;;;;;;;;;;;;;;;33.09;12.58;93071.25;2059139;69;20569;-73
2022/04/29 12:57:05;;;;;;;;;;;;;;;33.33;13.10;93060.59;2072482;69;20046;-73
2022/04/29 12:59:31;;;;;;;;;;;;;;;31.77;12.98;93062.34;2059171;69;20118;-73
2022/04/29 13:02:04;;;;;;;;;;;;;;;33.00;13.26;93055.38;2059278;69;20049;-71
2022/04/29 13:04:36;;;;;;;;;;;;;;;33.21;12.91;93052.78;2072226;69;20050;-73
2022/04/29 13:07:26;;;;;;;;;;;;;;;35.57;12.79;93061.25;2060166;69;20520;-71
2022/04/29 13:09:51;;;;;;;;;;;;;;;33.55;12.93;93048.50;2059167;69;20153;-70
2022/04/29 13:12:18;;;;;;;;;;;;;;;33.54;12.24;93043.41;2059225;69;20046;-70
2022/04/29 13:15:04;;;;;;;;;;;;;;;33.78;12.05;93040.00;2059102;69;20130;-70
2022/04/29 13:17:29;;;;;;;;;;;;;;;32.18;12.56;93029.03;2059063;69;20076;-71
2022/04/29 13:19:55;;;;;;;;;;;;;;;32.21;13.50;93024.59;2058923;69;20089;-71
2022/04/29 13:22:20;;;;;;;;;;;;;;;32.41;13.26;93021.41;2059068;69;20042;-70
2022/04/29 13:24:48;;;;;;;;;;;;;;;30.96;13.63;93008.75;2072113;69;20050;-71
2022/04/29 13:27:14;;;;;;;;;;;;;;;30.73;14.73;93011.19;2072124;69;20535;-70
2022/04/29 13:29:40;;;;;;;;;;;;;;;30.01;14.28;92999.44;2059081;69;20066;-70
2022/04/29 13:32:05;;;;;;;;;;;;;;;29.91;15.04;93004.59;2072232;69;20082;-72
2022/04/29 13:34:31;;;;;;;;;;;;;;;30.06;14.97;93000.13;2059121;69;20046;-73
2022/04/29 13:36:57;;;;;;;;;;;;;;;30.08;14.42;93000.09;2072054;69;20503;-70
2022/04/29 13:39:22;;;;;;;;;;;;;;;30.23;13.87;92997.81;2072057;69;20076;-70
2022/04/29 13:42:13;;;;;;;;;;;;;;;29.77;14.31;92991.63;2069848;69;20394;-70
2022/04/29 13:44:39;;;;;;;;;;;;;;;30.25;14.58;92994.94;2072071;69;20054;-70
2022/04/29 13:47:05;;;;;;;;;;;;;;;30.54;14.89;92992.47;2059020;69;20089;-70
2022/04/29 13:49:30;;;;;;;;;;;;;;;29.87;13.82;92990.81;2059026;69;20058;-70
2022/04/29 13:51:56;;;;;;;;;;;;;;;30.16;14.24;92984.84;2058959;69;20046;-70
2022/04/29 13:54:21;;;;;;;;;;;;;;;27.21;15.21;92981.13;2059061;69;20142;-72
2022/04/29 13:56:46;;;;;;;;;;;;;;;28.51;14.73;92984.16;2059030;69;20042;-72
2022/04/29 13:59:12;;;;;;;;;;;;;;;28.88;14.85;92984.78;2059121;69;20046;-70
2022/04/29 14:01:38;;;;;;;;;;;;;;;28.25;15.44;92992.84;2059046;69;20042;-70
2022/04/29 14:04:03;;;;;;;;;;;;;;;27.46;16.72;92987.72;2058960;69;20081;-70
2022/04/29 14:06:29;;;;;;;;;;;;;;;26.62;16.11;92981.63;2058898;69;20105;-71
2022/04/29 14:08:54;;;;;;;;;;;;;;;27.78;15.59;92990.69;2059029;69;20207;-73